createdAt,value
2019-03-17T00:01:08.301Z,26.15
2019-03-17T00:02:09.755Z,26.15
2019-03-17T00:03:11.157Z,26.14
2019-03-17T00:04:12.683Z,26.20
2019-03-17T00:05:14.052Z,26.23
2019-03-17T00:06:15.437Z,26.28
2019-03-17T00:07:16.842Z,26.29
2019-03-17T00:08:18.225Z,26.30
2019-03-17T00:09:19.725Z,26.35
2019-03-17T00:10:21.101Z,26.31
2019-03-17T00:11:22.496Z,26.35
2019-03-17T00:12:23.876Z,26.36
2019-03-17T00:13:25.384Z,26.36
2019-03-17T00:14:26.768Z,26.38
2019-03-17T00:15:28.177Z,26.38
2019-03-17T00:16:29.644Z,26.38
2019-03-17T00:17:31.040Z,26.41
2019-03-17T00:18:32.438Z,26.42
2019-03-17T00:19:34.934Z,26.43
2019-03-17T00:20:36.306Z,26.44
2019-03-17T00:21:37.705Z,26.46
2019-03-17T00:22:39.079Z,26.46
2019-03-17T00:23:40.478Z,26.48
2019-03-17T00:24:41.889Z,26.47
2019-03-17T00:25:43.446Z,26.48
2019-03-17T00:26:44.829Z,26.51
2019-03-17T00:27:46.212Z,26.50
2019-03-17T00:28:47.710Z,26.50
2019-03-17T00:29:49.209Z,26.54
2019-03-17T00:30:50.579Z,26.57
2019-03-17T00:31:52.075Z,26.55
2019-03-17T00:32:53.451Z,26.55
2019-03-17T00:33:54.956Z,26.55
2019-03-17T00:34:56.343Z,26.56
2019-03-17T00:35:57.797Z,26.56
2019-03-17T00:36:59.180Z,26.56
2019-03-17T00:38:00.566Z,26.54
2019-03-17T00:39:01.956Z,26.57
2019-03-17T00:40:06.251Z,26.55
2019-03-17T00:41:07.626Z,26.56
2019-03-17T00:42:09.120Z,26.54
2019-03-17T00:43:10.497Z,26.56
2019-03-17T00:44:12.002Z,26.59
2019-03-17T00:45:13.394Z,26.62
2019-03-17T00:46:14.795Z,26.60
2019-03-17T00:47:16.167Z,26.64
2019-03-17T00:48:17.657Z,26.63
2019-03-17T00:49:19.051Z,26.65
2019-03-17T00:50:20.476Z,26.65
2019-03-17T00:51:21.852Z,26.64
2019-03-17T00:52:23.252Z,26.65
2019-03-17T00:53:24.634Z,26.65
2019-03-17T00:54:26.033Z,26.68
2019-03-17T00:55:27.565Z,26.73
2019-03-17T00:56:29.020Z,26.75
2019-03-17T00:57:30.426Z,26.76
2019-03-17T00:58:31.914Z,26.78
2019-03-17T00:59:33.301Z,26.76
2019-03-17T01:00:34.807Z,26.78
2019-03-17T01:01:36.300Z,26.77
2019-03-17T01:02:37.739Z,26.78
2019-03-17T01:03:39.252Z,26.80
2019-03-17T01:04:40.662Z,26.80
2019-03-17T01:05:42.081Z,26.84
2019-03-17T01:06:43.452Z,26.82
2019-03-17T01:07:44.859Z,26.84
2019-03-17T01:08:46.343Z,26.87
2019-03-17T01:09:47.741Z,26.87
2019-03-17T01:10:49.124Z,26.86
2019-03-17T01:11:50.541Z,26.90
2019-03-17T01:12:51.948Z,26.87
2019-03-17T01:13:53.359Z,26.89
2019-03-17T01:14:54.769Z,26.89
2019-03-17T01:15:56.271Z,26.88
2019-03-17T01:16:57.636Z,26.89
2019-03-17T01:17:59.149Z,26.90
2019-03-17T01:19:00.535Z,26.90
2019-03-17T01:20:02.635Z,26.90
2019-03-17T01:21:04.144Z,26.88
2019-03-17T01:22:05.555Z,26.89
2019-03-17T01:23:07.070Z,26.92
2019-03-17T01:24:10.358Z,26.91
2019-03-17T01:25:12.097Z,26.91
2019-03-17T01:26:13.767Z,26.90
2019-03-17T01:27:15.322Z,26.88
2019-03-17T01:28:16.814Z,26.91
2019-03-17T01:29:18.201Z,26.94
2019-03-17T01:30:19.589Z,26.93
2019-03-17T01:31:21.168Z,26.94
2019-03-17T01:32:22.540Z,26.96
2019-03-17T01:33:23.964Z,26.94
2019-03-17T01:34:25.331Z,26.96
2019-03-17T01:35:26.724Z,26.94
2019-03-17T01:36:28.108Z,26.96
2019-03-17T01:37:29.514Z,26.93
2019-03-17T01:38:30.900Z,26.94
2019-03-17T01:39:32.465Z,26.94
2019-03-17T01:40:33.909Z,26.93
2019-03-17T01:41:35.279Z,26.93
2019-03-17T01:42:36.763Z,26.95
2019-03-17T01:43:38.265Z,26.92
2019-03-17T01:44:39.742Z,26.93
2019-03-17T01:45:41.144Z,26.96
2019-03-17T01:46:43.566Z,26.94
2019-03-17T01:47:45.055Z,26.93
2019-03-17T01:48:46.450Z,26.96
2019-03-17T01:49:47.840Z,26.96
2019-03-17T01:50:49.232Z,26.99
2019-03-17T01:51:50.805Z,26.99
2019-03-17T01:52:52.191Z,27.00
2019-03-17T01:53:53.584Z,27.01
2019-03-17T01:54:54.964Z,27.05
2019-03-17T01:55:56.364Z,27.06
2019-03-17T01:56:57.988Z,27.05
2019-03-17T01:57:59.442Z,27.07
2019-03-17T01:59:00.829Z,27.07
2019-03-17T02:00:02.825Z,27.09
2019-03-17T02:01:04.612Z,27.07
2019-03-17T02:02:07.005Z,27.05
2019-03-17T02:03:08.415Z,27.07
2019-03-17T02:04:09.828Z,27.06
2019-03-17T02:05:21.487Z,27.07
2019-03-17T02:06:14.702Z,27.09
2019-03-17T02:07:16.088Z,27.10
2019-03-17T02:08:17.498Z,27.08
2019-03-17T02:09:18.862Z,27.10
2019-03-17T02:10:20.261Z,27.10
2019-03-17T02:11:21.724Z,27.10
2019-03-17T02:12:23.152Z,27.10
2019-03-17T02:13:24.541Z,27.13
2019-03-17T02:14:25.991Z,27.14
2019-03-17T02:15:27.321Z,27.16
2019-03-17T02:16:28.721Z,27.16
2019-03-17T02:17:30.117Z,27.17
2019-03-17T02:18:31.962Z,27.17
2019-03-17T02:19:33.459Z,27.17
2019-03-17T02:20:34.851Z,27.17
2019-03-17T02:21:36.351Z,27.16
2019-03-17T02:22:38.842Z,27.16
2019-03-17T02:23:40.216Z,27.16
2019-03-17T02:24:41.612Z,27.16
2019-03-17T02:25:42.985Z,27.16
2019-03-17T02:26:44.488Z,27.18
2019-03-17T02:27:46.050Z,27.17
2019-03-17T02:28:47.500Z,27.18
2019-03-17T02:29:48.893Z,27.19
2019-03-17T02:30:51.191Z,27.16
2019-03-17T02:31:52.605Z,27.17
2019-03-17T02:32:54.178Z,27.18
2019-03-17T02:33:55.558Z,27.18
2019-03-17T02:34:57.061Z,27.19
2019-03-17T02:35:58.440Z,27.18
2019-03-17T02:36:59.938Z,27.18
2019-03-17T02:38:01.354Z,27.19
2019-03-17T02:39:04.366Z,27.19
2019-03-17T02:40:05.883Z,27.19
2019-03-17T02:41:07.290Z,27.19
2019-03-17T02:42:08.808Z,27.21
2019-03-17T02:43:10.412Z,27.22
2019-03-17T02:44:11.897Z,27.20
2019-03-17T02:45:13.290Z,27.21
2019-03-17T02:46:14.687Z,27.21
2019-03-17T02:47:16.182Z,27.21
2019-03-17T02:48:18.575Z,27.22
2019-03-17T02:49:20.101Z,27.23
2019-03-17T02:50:21.521Z,27.24
2019-03-17T02:51:22.933Z,27.25
2019-03-17T02:52:24.346Z,27.26
2019-03-17T02:53:25.842Z,27.26
2019-03-17T02:54:27.219Z,27.25
2019-03-17T02:55:28.726Z,27.26
2019-03-17T02:56:30.204Z,27.26
2019-03-17T02:57:31.606Z,27.28
2019-03-17T02:58:33.107Z,27.30
2019-03-17T02:59:34.743Z,27.30
2019-03-17T03:00:36.260Z,27.29
2019-03-17T03:01:37.675Z,27.28
2019-03-17T03:02:39.078Z,27.28
2019-03-17T03:03:40.483Z,27.28
2019-03-17T03:04:41.869Z,27.29
2019-03-17T03:05:55.010Z,27.32
2019-03-17T03:06:47.549Z,27.32
2019-03-17T03:07:48.948Z,27.31
2019-03-17T03:08:50.339Z,27.32
2019-03-17T03:09:51.743Z,27.32
2019-03-17T03:10:53.259Z,27.33
2019-03-17T03:11:54.774Z,27.32
2019-03-17T03:12:56.189Z,27.31
2019-03-17T03:13:57.590Z,27.30
2019-03-17T03:14:58.966Z,27.34
2019-03-17T03:16:00.369Z,27.35
2019-03-17T03:17:01.852Z,27.33
2019-03-17T03:18:04.351Z,27.33
2019-03-17T03:19:06.772Z,27.33
2019-03-17T03:20:08.992Z,27.31
2019-03-17T03:21:10.405Z,27.31
2019-03-17T03:22:11.809Z,27.33
2019-03-17T03:23:13.407Z,27.31
2019-03-17T03:24:15.125Z,27.32
2019-03-17T03:25:16.501Z,27.31
2019-03-17T03:26:17.907Z,27.30
2019-03-17T03:27:19.284Z,27.30
2019-03-17T03:28:20.693Z,27.29
2019-03-17T03:29:22.076Z,27.26
2019-03-17T03:30:23.721Z,27.26
2019-03-17T03:31:25.175Z,27.30
2019-03-17T03:32:26.579Z,27.28
2019-03-17T03:33:28.107Z,27.28
2019-03-17T03:34:29.638Z,27.25
2019-03-17T03:35:31.019Z,27.25
2019-03-17T03:36:32.528Z,27.25
2019-03-17T03:37:33.934Z,27.25
2019-03-17T03:38:35.346Z,27.23
2019-03-17T03:39:36.759Z,27.21
2019-03-17T03:40:38.125Z,27.20
2019-03-17T03:41:39.525Z,27.22
2019-03-17T03:42:40.893Z,27.23
2019-03-17T03:43:42.401Z,27.23
2019-03-17T03:44:43.787Z,27.24
2019-03-17T03:45:46.217Z,27.27
2019-03-17T03:46:47.623Z,27.26
2019-03-17T03:47:49.038Z,27.26
2019-03-17T03:48:50.436Z,27.27
2019-03-17T03:49:51.833Z,27.21
2019-03-17T03:50:53.322Z,27.25
2019-03-17T03:51:54.711Z,27.25
2019-03-17T03:52:56.198Z,27.27
2019-03-17T03:53:57.597Z,27.26
2019-03-17T03:54:58.989Z,27.27
2019-03-17T03:56:00.500Z,27.30
2019-03-17T03:57:02.018Z,27.30
2019-03-17T03:58:03.412Z,27.30
2019-03-17T03:59:04.829Z,27.30
2019-03-17T04:00:13.613Z,27.31
2019-03-17T04:01:15.071Z,27.31
2019-03-17T04:02:16.557Z,27.28
2019-03-17T04:03:18.042Z,27.26
2019-03-17T04:04:19.425Z,27.28
2019-03-17T04:05:20.849Z,27.29
2019-03-17T04:06:26.838Z,27.31
2019-03-17T04:07:25.514Z,27.28
2019-03-17T04:08:26.887Z,27.29
2019-03-17T04:09:28.291Z,27.30
2019-03-17T04:10:29.714Z,27.32
2019-03-17T04:11:31.101Z,27.30
2019-03-17T04:12:32.486Z,27.31
2019-03-17T04:13:33.876Z,27.31
2019-03-17T04:14:35.260Z,27.30
2019-03-17T04:15:36.868Z,27.31
2019-03-17T04:16:38.244Z,27.32
2019-03-17T04:17:39.648Z,27.32
2019-03-17T04:18:41.065Z,27.31
2019-03-17T04:19:42.420Z,27.31
2019-03-17T04:20:44.004Z,27.29
2019-03-17T04:21:45.486Z,27.31
2019-03-17T04:22:47.143Z,27.28
2019-03-17T04:23:48.545Z,27.31
2019-03-17T04:24:50.038Z,27.29
2019-03-17T04:25:51.881Z,27.30
2019-03-17T04:26:53.248Z,27.31
2019-03-17T04:27:54.648Z,27.31
2019-03-17T04:28:56.029Z,27.31
2019-03-17T04:29:58.426Z,27.32
2019-03-17T04:30:59.819Z,27.32
2019-03-17T04:32:01.279Z,27.32
2019-03-17T04:33:02.673Z,27.33
2019-03-17T04:34:04.175Z,27.34
2019-03-17T04:35:05.968Z,27.36
2019-03-17T04:36:07.366Z,27.36
2019-03-17T04:37:08.749Z,27.35
2019-03-17T04:38:10.161Z,27.35
2019-03-17T04:39:11.540Z,27.34
2019-03-17T04:40:12.933Z,27.33
2019-03-17T04:41:14.323Z,27.31
2019-03-17T04:42:15.715Z,27.31
2019-03-17T04:43:17.102Z,27.28
2019-03-17T04:44:21.132Z,27.28
2019-03-17T04:45:21.773Z,27.28
2019-03-17T04:46:23.173Z,27.26
2019-03-17T04:47:25.545Z,27.27
2019-03-17T04:48:26.940Z,27.25
2019-03-17T04:49:28.326Z,27.27
2019-03-17T04:50:29.828Z,27.29
2019-03-17T04:51:31.241Z,27.29
2019-03-17T04:52:32.620Z,27.32
2019-03-17T04:53:34.021Z,27.32
2019-03-17T04:54:35.403Z,27.29
2019-03-17T04:55:36.897Z,27.28
2019-03-17T04:56:38.424Z,27.33
2019-03-17T04:57:39.810Z,27.33
2019-03-17T04:58:41.204Z,27.33
2019-03-17T04:59:42.582Z,27.36
2019-03-17T05:00:43.983Z,27.38
2019-03-17T05:01:45.393Z,27.35
2019-03-17T05:02:46.954Z,27.39
2019-03-17T05:03:48.370Z,27.39
2019-03-17T05:04:49.759Z,27.38
2019-03-17T05:05:51.150Z,27.39
2019-03-17T05:06:53.222Z,27.37
2019-03-17T05:07:54.728Z,27.35
2019-03-17T05:08:56.123Z,27.39
2019-03-17T05:09:57.600Z,27.36
2019-03-17T05:10:59.103Z,27.38
2019-03-17T05:12:00.519Z,27.37
2019-03-17T05:13:01.908Z,27.37
2019-03-17T05:14:03.293Z,27.37
2019-03-17T05:15:07.692Z,27.34
2019-03-17T05:16:09.075Z,27.37
2019-03-17T05:17:10.483Z,27.37
2019-03-17T05:18:11.883Z,27.35
2019-03-17T05:19:13.302Z,27.39
2019-03-17T05:20:15.707Z,27.42
2019-03-17T05:21:17.117Z,27.40
2019-03-17T05:22:18.544Z,27.41
2019-03-17T05:23:19.923Z,27.38
2019-03-17T05:24:21.326Z,27.40
2019-03-17T05:25:22.726Z,27.37
2019-03-17T05:26:24.217Z,27.33
2019-03-17T05:27:25.612Z,27.36
2019-03-17T05:28:27.032Z,27.38
2019-03-17T05:29:28.568Z,27.37
2019-03-17T05:30:29.972Z,27.36
2019-03-17T05:31:31.381Z,27.37
2019-03-17T05:32:32.787Z,27.34
2019-03-17T05:33:34.156Z,27.34
2019-03-17T05:34:35.557Z,27.35
2019-03-17T05:35:36.946Z,27.38
2019-03-17T05:36:38.340Z,27.37
2019-03-17T05:37:40.763Z,27.37
2019-03-17T05:38:42.179Z,27.37
2019-03-17T05:39:43.591Z,27.38
2019-03-17T05:40:45.010Z,27.39
2019-03-17T05:41:46.417Z,27.37
2019-03-17T05:42:47.812Z,27.39
2019-03-17T05:43:49.190Z,27.39
2019-03-17T05:44:50.589Z,27.38
2019-03-17T05:45:51.971Z,27.38
2019-03-17T05:46:53.367Z,27.34
2019-03-17T05:47:54.765Z,27.32
2019-03-17T05:48:56.181Z,27.32
2019-03-17T05:49:57.596Z,27.30
2019-03-17T05:50:59.010Z,27.33
2019-03-17T05:52:00.420Z,27.31
2019-03-17T05:53:01.849Z,27.31
2019-03-17T05:54:03.229Z,27.33
2019-03-17T05:55:06.935Z,27.32
2019-03-17T05:56:08.434Z,27.32
2019-03-17T05:57:09.828Z,27.33
2019-03-17T05:58:11.330Z,27.35
2019-03-17T05:59:12.823Z,27.36
2019-03-17T06:00:15.687Z,27.36
2019-03-17T06:01:17.161Z,27.40
2019-03-17T06:02:18.665Z,27.43
2019-03-17T06:03:20.060Z,27.47
2019-03-17T06:04:21.580Z,27.49
2019-03-17T06:05:23.024Z,27.49
2019-03-17T06:06:24.505Z,27.47
2019-03-17T06:07:25.927Z,27.50
2019-03-17T06:08:27.331Z,27.49
2019-03-17T06:09:28.711Z,27.49
2019-03-17T06:10:30.106Z,27.49
2019-03-17T06:11:31.488Z,27.49
2019-03-17T06:12:32.888Z,27.48
2019-03-17T06:13:34.297Z,27.51
2019-03-17T06:14:35.714Z,27.46
2019-03-17T06:15:37.129Z,27.48
2019-03-17T06:16:38.545Z,27.51
2019-03-17T06:17:39.956Z,27.48
2019-03-17T06:18:41.386Z,27.51
2019-03-17T06:19:42.773Z,27.53
2019-03-17T06:20:44.181Z,27.52
2019-03-17T06:21:45.589Z,27.57
2019-03-17T06:22:47.004Z,27.54
2019-03-17T06:23:48.513Z,27.58
2019-03-17T06:24:49.995Z,27.57
2019-03-17T06:25:51.393Z,27.57
2019-03-17T06:26:52.766Z,27.56
2019-03-17T06:27:54.168Z,27.57
2019-03-17T06:28:55.680Z,27.56
2019-03-17T06:30:00.804Z,27.57
2019-03-17T06:31:02.315Z,27.56
2019-03-17T06:32:03.697Z,27.54
2019-03-17T06:33:05.100Z,27.58
2019-03-17T06:34:06.521Z,27.56
2019-03-17T06:35:07.998Z,27.56
2019-03-17T06:36:09.384Z,27.52
2019-03-17T06:37:10.770Z,27.55
2019-03-17T06:38:13.157Z,27.57
2019-03-17T06:39:14.813Z,27.55
2019-03-17T06:40:16.185Z,27.54
2019-03-17T06:41:17.582Z,27.56
2019-03-17T06:42:18.960Z,27.55
2019-03-17T06:43:20.360Z,27.56
2019-03-17T06:44:21.901Z,27.56
2019-03-17T06:45:23.350Z,27.55
2019-03-17T06:46:24.773Z,27.52
2019-03-17T06:47:26.163Z,27.52
2019-03-17T06:48:27.558Z,27.49
2019-03-17T06:49:29.207Z,27.48
2019-03-17T06:50:30.588Z,27.50
2019-03-17T06:51:31.989Z,27.51
2019-03-17T06:52:33.372Z,27.53
2019-03-17T06:53:34.768Z,27.52
2019-03-17T06:54:36.162Z,27.49
2019-03-17T06:55:37.548Z,27.50
2019-03-17T06:56:38.936Z,27.48
2019-03-17T06:57:40.325Z,27.45
2019-03-17T06:58:44.788Z,27.49
2019-03-17T06:59:46.224Z,27.47
2019-03-17T07:00:47.603Z,27.44
2019-03-17T07:01:49.068Z,27.43
2019-03-17T07:02:50.442Z,27.44
2019-03-17T07:03:51.863Z,27.44
2019-03-17T07:04:54.161Z,27.44
2019-03-17T07:05:55.853Z,27.48
2019-03-17T07:06:57.344Z,27.48
2019-03-17T07:07:58.721Z,27.48
2019-03-17T07:09:00.115Z,27.47
2019-03-17T07:10:21.463Z,27.45
2019-03-17T07:11:22.874Z,27.42
2019-03-17T07:12:25.387Z,27.34
2019-03-17T07:13:26.799Z,27.33
2019-03-17T07:14:28.226Z,27.31
2019-03-17T07:15:29.653Z,27.26
2019-03-17T07:16:31.035Z,27.21
2019-03-17T07:17:32.429Z,27.12
2019-03-17T07:18:33.804Z,27.08
2019-03-17T07:19:35.209Z,26.97
2019-03-17T07:20:36.600Z,26.90
2019-03-17T07:21:38.004Z,26.83
2019-03-17T07:22:39.412Z,26.72
2019-03-17T07:23:40.826Z,26.67
2019-03-17T07:24:42.233Z,26.56
2019-03-17T07:25:43.635Z,26.48
2019-03-17T07:26:45.020Z,26.37
2019-03-17T07:27:46.412Z,26.28
2019-03-17T07:28:47.781Z,26.20
2019-03-17T07:29:51.111Z,26.11
2019-03-17T07:30:52.507Z,26.01
2019-03-17T07:31:54.094Z,25.93
2019-03-17T07:32:55.504Z,25.84
2019-03-17T07:33:56.915Z,25.75
2019-03-17T07:34:58.333Z,25.66
2019-03-17T07:35:59.909Z,25.59
2019-03-17T07:37:01.283Z,25.51
2019-03-17T07:38:02.980Z,25.44
2019-03-17T07:39:11.786Z,25.34
2019-03-17T07:40:11.376Z,25.27
2019-03-17T07:41:12.956Z,25.22
2019-03-17T07:42:14.386Z,25.14
2019-03-17T07:43:15.788Z,25.12
2019-03-17T07:44:17.197Z,25.04
2019-03-17T07:45:18.617Z,25.01
2019-03-17T07:46:20.266Z,24.99
2019-03-17T07:47:21.642Z,24.94
2019-03-17T07:48:23.042Z,24.87
2019-03-17T07:49:24.416Z,24.80
2019-03-17T07:50:25.816Z,24.77
2019-03-17T07:51:27.211Z,24.68
2019-03-17T07:52:28.616Z,24.66
2019-03-17T07:53:30.027Z,24.57
2019-03-17T07:54:35.015Z,24.57
2019-03-17T07:55:35.816Z,24.57
2019-03-17T07:56:37.273Z,24.50
2019-03-17T07:57:38.648Z,24.47
2019-03-17T07:58:40.050Z,24.38
2019-03-17T07:59:41.429Z,24.40
2019-03-17T08:00:42.828Z,24.35
2019-03-17T08:01:44.234Z,24.37
2019-03-17T08:02:45.720Z,24.36
2019-03-17T08:03:47.178Z,24.35
2019-03-17T08:04:48.584Z,24.33
2019-03-17T08:05:49.993Z,24.31
2019-03-17T08:06:52.391Z,24.30
2019-03-17T08:07:53.773Z,24.32
2019-03-17T08:08:55.277Z,24.33
2019-03-17T08:09:56.658Z,24.29
2019-03-17T08:10:58.175Z,24.33
2019-03-17T08:11:59.760Z,24.35
2019-03-17T08:13:01.260Z,24.34
2019-03-17T08:14:03.356Z,24.37
2019-03-17T08:15:07.529Z,24.37
2019-03-17T08:16:08.926Z,24.40
2019-03-17T08:17:10.327Z,24.34
2019-03-17T08:18:11.828Z,24.39
2019-03-17T08:19:13.328Z,24.38
2019-03-17T08:20:14.739Z,24.39
2019-03-17T08:21:16.145Z,24.37
2019-03-17T08:22:17.547Z,24.39
2019-03-17T08:23:18.917Z,24.38
2019-03-17T08:24:20.318Z,24.42
2019-03-17T08:25:21.798Z,24.40
2019-03-17T08:26:23.192Z,24.38
2019-03-17T08:27:24.758Z,24.42
2019-03-17T08:28:26.160Z,24.44
2019-03-17T08:29:27.579Z,24.45
2019-03-17T08:30:28.991Z,24.46
2019-03-17T08:31:32.636Z,24.48
2019-03-17T08:32:34.259Z,24.49
2019-03-17T08:33:35.736Z,24.50
2019-03-17T08:34:37.216Z,24.50
2019-03-17T08:35:38.592Z,24.50
2019-03-17T08:36:39.989Z,24.52
2019-03-17T08:37:41.475Z,24.54
2019-03-17T08:38:42.884Z,24.57
2019-03-17T08:39:44.296Z,24.58
2019-03-17T08:40:45.719Z,24.59
2019-03-17T08:41:47.132Z,24.58
2019-03-17T08:42:48.533Z,24.59
2019-03-17T08:43:54.449Z,24.59
2019-03-17T08:44:54.391Z,24.56
2019-03-17T08:45:55.768Z,24.60
2019-03-17T08:46:57.290Z,24.66
2019-03-17T08:47:58.897Z,24.68
2019-03-17T08:49:00.309Z,24.66
2019-03-17T08:50:02.317Z,24.67
2019-03-17T08:51:03.732Z,24.68
2019-03-17T08:52:05.141Z,24.73
2019-03-17T08:53:06.712Z,24.69
2019-03-17T08:54:08.088Z,24.71
2019-03-17T08:55:10.489Z,24.71
2019-03-17T08:56:11.867Z,24.72
2019-03-17T08:57:13.261Z,24.74
2019-03-17T08:58:14.758Z,24.73
2019-03-17T08:59:16.273Z,24.70
2019-03-17T09:00:18.886Z,24.67
2019-03-17T09:01:20.296Z,24.69
2019-03-17T09:02:25.840Z,24.71
2019-03-17T09:03:27.314Z,24.75
2019-03-17T09:04:28.693Z,24.75
2019-03-17T09:05:30.094Z,24.72
2019-03-17T09:06:31.472Z,24.74
2019-03-17T09:07:32.874Z,24.73
2019-03-17T09:08:35.547Z,24.73
2019-03-17T09:09:38.155Z,24.68
2019-03-17T09:10:39.644Z,24.70
2019-03-17T09:11:41.062Z,24.70
2019-03-17T09:12:42.571Z,24.66
2019-03-17T09:13:44.100Z,24.68
2019-03-17T09:14:45.481Z,24.68
2019-03-17T09:15:46.889Z,24.71
2019-03-17T09:16:48.370Z,24.71
2019-03-17T09:17:49.765Z,24.69
2019-03-17T09:18:51.337Z,24.69
2019-03-17T09:19:52.752Z,24.64
2019-03-17T09:20:54.268Z,24.58
2019-03-17T09:21:55.822Z,24.61
2019-03-17T09:22:57.342Z,24.59
2019-03-17T09:23:58.742Z,24.57
2019-03-17T09:25:00.179Z,24.56
2019-03-17T09:26:01.721Z,24.53
2019-03-17T09:27:03.096Z,24.60
2019-03-17T09:28:04.502Z,24.57
2019-03-17T09:29:05.990Z,24.57
2019-03-17T09:30:10.397Z,24.54
2019-03-17T09:31:11.809Z,24.49
2019-03-17T09:32:13.223Z,24.45
2019-03-17T09:33:14.714Z,24.40
2019-03-17T09:34:16.265Z,24.45
2019-03-17T09:35:17.738Z,24.42
2019-03-17T09:36:20.250Z,24.40
2019-03-17T09:37:21.631Z,24.42
2019-03-17T09:38:23.033Z,24.37
2019-03-17T09:39:24.420Z,24.37
2019-03-17T09:40:25.813Z,24.33
2019-03-17T09:41:27.199Z,24.30
2019-03-17T09:42:28.585Z,24.32
2019-03-17T09:43:29.983Z,24.29
2019-03-17T09:44:31.563Z,24.28
2019-03-17T09:45:33.045Z,24.24
2019-03-17T09:46:34.451Z,24.24
2019-03-17T09:47:35.938Z,24.22
2019-03-17T09:48:37.336Z,24.19
2019-03-17T09:49:38.864Z,24.18
2019-03-17T09:50:40.253Z,24.19
2019-03-17T09:51:41.647Z,24.19
2019-03-17T09:52:43.029Z,24.14
2019-03-17T09:53:44.418Z,24.12
2019-03-17T09:54:46.844Z,24.15
2019-03-17T09:55:48.228Z,24.12
2019-03-17T09:56:49.735Z,24.08
2019-03-17T09:57:51.111Z,24.10
2019-03-17T09:58:52.514Z,24.08
2019-03-17T09:59:53.904Z,24.08
2019-03-17T10:00:55.294Z,24.10
2019-03-17T10:01:56.780Z,24.04
2019-03-17T10:02:58.189Z,24.07
2019-03-17T10:03:59.576Z,24.03
2019-03-17T10:05:01.068Z,24.08
2019-03-17T10:06:02.441Z,24.09
2019-03-17T10:07:03.843Z,24.07
2019-03-17T10:08:05.231Z,24.09
2019-03-17T10:09:06.650Z,24.05
2019-03-17T10:10:13.141Z,24.07
2019-03-17T10:11:14.521Z,24.06
2019-03-17T10:12:15.905Z,24.02
2019-03-17T10:13:17.297Z,24.01
2019-03-17T10:14:18.683Z,23.98
2019-03-17T10:15:20.232Z,24.02
2019-03-17T10:16:22.588Z,24.05
2019-03-17T10:17:23.988Z,24.01
2019-03-17T10:18:25.410Z,24.02
2019-03-17T10:19:26.815Z,24.05
2019-03-17T10:20:28.304Z,24.04
2019-03-17T10:21:30.695Z,24.08
2019-03-17T10:22:32.079Z,24.10
2019-03-17T10:23:33.470Z,24.10
2019-03-17T10:24:34.956Z,24.12
2019-03-17T10:25:36.358Z,24.10
2019-03-17T10:26:37.736Z,24.12
2019-03-17T10:27:39.239Z,24.10
2019-03-17T10:28:40.613Z,24.12
2019-03-17T10:29:42.016Z,24.15
2019-03-17T10:30:43.501Z,24.14
2019-03-17T10:31:44.887Z,24.12
2019-03-17T10:32:46.277Z,24.10
2019-03-17T10:33:47.664Z,24.17
2019-03-17T10:34:49.045Z,24.12
2019-03-17T10:35:50.863Z,24.18
2019-03-17T10:36:52.261Z,24.16
2019-03-17T10:37:53.643Z,24.28
2019-03-17T10:38:55.024Z,24.52
2019-03-17T10:39:56.509Z,24.74
2019-03-17T10:40:57.901Z,24.57
2019-03-17T10:41:59.288Z,24.43
2019-03-17T10:43:00.689Z,24.35
2019-03-17T10:44:02.276Z,24.38
2019-03-17T10:45:05.062Z,24.35
2019-03-17T10:46:06.558Z,24.34
2019-03-17T10:47:07.932Z,24.31
2019-03-17T10:48:09.927Z,24.36
2019-03-17T10:49:11.310Z,24.43
2019-03-17T10:50:17.503Z,24.38
2019-03-17T10:51:18.891Z,24.38
2019-03-17T10:52:20.406Z,24.36
2019-03-17T10:53:21.778Z,24.33
2019-03-17T10:54:23.165Z,24.35
2019-03-17T10:55:24.562Z,24.34
2019-03-17T10:56:25.963Z,24.39
2019-03-17T10:57:27.346Z,24.44
2019-03-17T10:58:28.752Z,24.41
2019-03-17T10:59:30.135Z,24.42
2019-03-17T11:00:31.528Z,24.37
2019-03-17T11:01:33.032Z,24.36
2019-03-17T11:02:34.415Z,24.39
2019-03-17T11:03:35.802Z,24.34
2019-03-17T11:04:37.203Z,24.37
2019-03-17T11:05:38.684Z,24.38
2019-03-17T11:06:40.452Z,24.39
2019-03-17T11:07:41.839Z,24.40
2019-03-17T11:08:43.199Z,24.39
2019-03-17T11:09:44.594Z,24.40
2019-03-17T11:10:45.977Z,24.36
2019-03-17T11:11:47.369Z,24.36
2019-03-17T11:12:49.775Z,24.39
2019-03-17T11:13:51.184Z,24.39
2019-03-17T11:14:52.596Z,24.37
2019-03-17T11:15:54.007Z,24.33
2019-03-17T11:16:55.433Z,24.33
2019-03-17T11:17:56.814Z,24.33
2019-03-17T11:18:58.315Z,24.31
2019-03-17T11:20:00.693Z,24.32
2019-03-17T11:21:02.190Z,24.33
2019-03-17T11:22:03.593Z,24.35
2019-03-17T11:23:05.108Z,24.35
2019-03-17T11:24:06.506Z,24.33
2019-03-17T11:25:12.995Z,24.33
2019-03-17T11:26:14.405Z,24.35
2019-03-17T11:27:15.814Z,24.32
2019-03-17T11:28:17.239Z,24.32
2019-03-17T11:29:18.589Z,24.35
2019-03-17T11:30:20.863Z,24.33
2019-03-17T11:31:22.360Z,24.34
2019-03-17T11:32:23.742Z,24.37
2019-03-17T11:33:25.156Z,24.36
2019-03-17T11:34:26.829Z,24.37
2019-03-17T11:35:28.233Z,24.36
2019-03-17T11:36:29.627Z,24.30
2019-03-17T11:37:31.639Z,24.33
2019-03-17T11:38:33.015Z,24.32
2019-03-17T11:39:37.909Z,24.31
2019-03-17T11:40:37.740Z,24.32
2019-03-17T11:41:39.141Z,24.30
2019-03-17T11:42:40.527Z,24.35
2019-03-17T11:43:42.031Z,24.39
2019-03-17T11:44:43.431Z,24.39
2019-03-17T11:45:44.816Z,24.38
2019-03-17T11:46:46.204Z,24.39
2019-03-17T11:47:47.717Z,24.41
2019-03-17T11:48:49.093Z,24.42
2019-03-17T11:49:50.502Z,24.39
2019-03-17T11:50:51.902Z,24.38
2019-03-17T11:51:53.306Z,24.33
2019-03-17T11:52:54.692Z,24.36
2019-03-17T11:53:56.080Z,24.34
2019-03-17T11:54:57.477Z,24.38
2019-03-17T11:55:58.865Z,24.41
2019-03-17T11:57:00.251Z,24.40
2019-03-17T11:58:01.652Z,24.43
2019-03-17T11:59:03.124Z,24.39
2019-03-17T12:00:15.771Z,24.38
2019-03-17T12:01:18.151Z,24.42
2019-03-17T12:02:26.510Z,24.40
2019-03-17T12:03:23.110Z,24.43
2019-03-17T12:04:24.501Z,24.46
2019-03-17T12:05:25.888Z,24.43
2019-03-17T12:06:27.362Z,24.44
2019-03-17T12:07:28.770Z,24.47
2019-03-17T12:08:30.799Z,24.48
2019-03-17T12:09:32.180Z,24.47
2019-03-17T12:10:33.554Z,24.47
2019-03-17T12:11:34.946Z,24.48
2019-03-17T12:12:36.339Z,24.44
2019-03-17T12:13:37.860Z,24.45
2019-03-17T12:14:39.240Z,24.47
2019-03-17T12:15:40.639Z,24.47
2019-03-17T12:16:42.017Z,24.51
2019-03-17T12:17:43.428Z,24.45
2019-03-17T12:18:44.965Z,24.44
2019-03-17T12:19:46.376Z,24.45
2019-03-17T12:20:47.784Z,24.44
2019-03-17T12:21:49.206Z,24.48
2019-03-17T12:22:50.619Z,24.50
2019-03-17T12:23:52.121Z,24.53
2019-03-17T12:24:53.495Z,24.50
2019-03-17T12:25:54.897Z,24.43
2019-03-17T12:26:56.268Z,24.48
2019-03-17T12:27:57.680Z,24.50
2019-03-17T12:28:59.168Z,24.49
2019-03-17T12:30:00.578Z,24.50
2019-03-17T12:31:02.241Z,24.49
2019-03-17T12:32:03.824Z,24.50
2019-03-17T12:33:05.341Z,24.49
2019-03-17T12:34:06.843Z,24.52
2019-03-17T12:35:08.214Z,24.49
2019-03-17T12:36:09.618Z,24.49
2019-03-17T12:37:10.993Z,24.49
2019-03-17T12:38:12.377Z,24.49
2019-03-17T12:39:14.334Z,24.52
2019-03-17T12:40:15.708Z,24.46
2019-03-17T12:41:17.080Z,24.51
2019-03-17T12:42:18.573Z,24.56
2019-03-17T12:43:20.056Z,24.56
2019-03-17T12:44:21.482Z,24.53
2019-03-17T12:45:22.868Z,24.50
2019-03-17T12:46:24.270Z,24.59
2019-03-17T12:47:25.652Z,24.59
2019-03-17T12:48:27.055Z,24.59
2019-03-17T12:49:28.561Z,24.56
2019-03-17T12:50:29.948Z,24.59
2019-03-17T12:51:31.344Z,24.58
2019-03-17T12:52:32.723Z,24.68
2019-03-17T12:53:34.116Z,24.64
2019-03-17T12:54:35.615Z,24.65
2019-03-17T12:55:36.999Z,24.62
2019-03-17T12:56:38.384Z,24.63
2019-03-17T12:57:39.784Z,24.68
2019-03-17T12:58:41.180Z,24.65
2019-03-17T12:59:42.585Z,24.69
2019-03-17T13:00:44.961Z,24.67
2019-03-17T13:01:46.461Z,24.63
2019-03-17T13:02:47.846Z,24.65
2019-03-17T13:03:49.259Z,24.65
2019-03-17T13:04:50.688Z,24.62
2019-03-17T13:05:52.180Z,24.67
2019-03-17T13:06:53.588Z,24.60
2019-03-17T13:07:54.959Z,24.67
2019-03-17T13:08:56.357Z,24.65
2019-03-17T13:09:58.252Z,24.72
2019-03-17T13:10:59.631Z,24.65
2019-03-17T13:12:01.010Z,24.69
2019-03-17T13:13:03.412Z,24.68
2019-03-17T13:14:06.863Z,24.72